NKS69 KLAS-KLAX
Flight info
| Callsign | NKS69 |
|---|---|
| Flight time | 0h 41m |
| Altitude | 28000 |
| Route | RADYR2 BLAQQ SHTNR ANJLL4 |
| Aircraft | A320/M-SDE3FGHIRWY/LB1 |
Departure
| Time | 2026-05-04 02:57 |
|---|---|
| Airport | Harry Reid International Airport (KLAS) |
Arrival
| Time | 2026-05-04 03:38 |
|---|---|
| Airport | Los Angeles International Airport (KLAX) |
| Time | Latitude | Longitude | Altitude | Speed | Heading |
|---|---|---|---|---|---|
| 2026-05-04 02:39 | 36.08492 | -115.15401 | 2097 ft | 0 kts | 335° |
| 2026-05-04 02:44 | 36.08481 | -115.15395 | 2097 ft | 3 kts | 338° |
| 2026-05-04 02:45 | 36.08462 | -115.15387 | 2097 ft | 3 kts | 341° |
| 2026-05-04 02:45 | 36.08444 | -115.15379 | 2097 ft | 3 kts | 341° |
| 2026-05-04 02:45 | 36.08425 | -115.15372 | 2097 ft | 3 kts | 349° |
| 2026-05-04 02:45 | 36.08407 | -115.15367 | 2097 ft | 3 kts | 316° |
| 2026-05-04 02:46 | 36.08402 | -115.15377 | 2097 ft | 2 kts | 249° |
| 2026-05-04 02:46 | 36.08403 | -115.15373 | 2097 ft | 1 kts | 245° |
| 2026-05-04 02:49 | 36.08398 | -115.15386 | 2097 ft | 0 kts | 245° |
| 2026-05-04 02:50 | 36.08397 | -115.15389 | 2097 ft | 0 kts | 245° |
| 2026-05-04 02:50 | 36.08389 | -115.15410 | 2097 ft | 11 kts | 245° |
| 2026-05-04 02:50 | 36.08351 | -115.15514 | 2098 ft | 14 kts | 245° |
| 2026-05-04 02:51 | 36.08368 | -115.15615 | 2100 ft | 13 kts | 323° |
| 2026-05-04 02:51 | 36.08454 | -115.15668 | 2102 ft | 14 kts | 335° |
| 2026-05-04 02:51 | 36.08546 | -115.15719 | 2103 ft | 15 kts | 336° |
| 2026-05-04 02:51 | 36.08657 | -115.15771 | 2105 ft | 19 kts | 348° |
| 2026-05-04 02:52 | 36.08791 | -115.15744 | 2104 ft | 21 kts | 24° |
| 2026-05-04 02:52 | 36.08932 | -115.15663 | 2102 ft | 24 kts | 25° |
| 2026-05-04 02:52 | 36.09090 | -115.15572 | 2099 ft | 26 kts | 25° |
| 2026-05-04 02:52 | 36.09262 | -115.15472 | 2098 ft | 28 kts | 25° |
| 2026-05-04 02:53 | 36.09444 | -115.15367 | 2097 ft | 30 kts | 25° |
| 2026-05-04 02:53 | 36.09619 | -115.15267 | 2097 ft | 20 kts | 25° |
| 2026-05-04 02:53 | 36.09742 | -115.15208 | 2096 ft | 15 kts | 2° |
| 2026-05-04 02:53 | 36.09798 | -115.15250 | 2095 ft | 0 kts | 294° |
| 2026-05-04 02:55 | 36.09799 | -115.15252 | 2095 ft | 2 kts | 294° |
| 2026-05-04 02:55 | 36.09809 | -115.15358 | 2093 ft | 16 kts | 248° |
| 2026-05-04 02:55 | 36.09762 | -115.15410 | 2095 ft | 0 kts | 206° |
| 2026-05-04 02:56 | 36.09760 | -115.15411 | 2095 ft | 5 kts | 206° |
| 2026-05-04 02:56 | 36.09532 | -115.15546 | 2099 ft | 70 kts | 205° |
| 2026-05-04 02:57 | 36.08906 | -115.15902 | 2112 ft | 124 kts | 205° |
| 2026-05-04 02:57 | 36.08007 | -115.16421 | 2245 ft | 155 kts | 205° |
| 2026-05-04 02:57 | 36.07014 | -115.16990 | 2872 ft | 156 kts | 206° |
| 2026-05-04 02:57 | 36.06049 | -115.17557 | 3594 ft | 154 kts | 207° |
| 2026-05-04 02:58 | 36.05076 | -115.18134 | 4056 ft | 161 kts | 207° |
| 2026-05-04 02:58 | 36.03997 | -115.18777 | 4241 ft | 183 kts | 208° |
| 2026-05-04 02:58 | 36.02766 | -115.19511 | 4508 ft | 208 kts | 207° |
| 2026-05-04 02:58 | 36.01410 | -115.20322 | 4879 ft | 232 kts | 207° |
| 2026-05-04 02:59 | 35.99869 | -115.21186 | 5399 ft | 249 kts | 204° |
| 2026-05-04 02:59 | 35.98222 | -115.21977 | 6215 ft | 256 kts | 202° |
| 2026-05-04 02:59 | 35.96529 | -115.22739 | 7036 ft | 260 kts | 200° |
| 2026-05-04 02:59 | 35.94829 | -115.23492 | 7862 ft | 265 kts | 200° |
| 2026-05-04 03:00 | 35.93082 | -115.24268 | 8743 ft | 268 kts | 200° |
| 2026-05-04 03:00 | 35.91311 | -115.25059 | 9642 ft | 271 kts | 200° |
| 2026-05-04 03:00 | 35.89516 | -115.25866 | 10345 ft | 280 kts | 200° |
| 2026-05-04 03:00 | 35.87628 | -115.26716 | 10608 ft | 303 kts | 200° |
| 2026-05-04 03:01 | 35.85577 | -115.27640 | 10941 ft | 321 kts | 200° |
| 2026-05-04 03:01 | 35.83441 | -115.28604 | 11532 ft | 329 kts | 200° |
| 2026-05-04 03:01 | 35.81276 | -115.29587 | 12254 ft | 333 kts | 200° |
| 2026-05-04 03:01 | 35.79084 | -115.30584 | 12943 ft | 337 kts | 200° |
| 2026-05-04 03:02 | 35.76871 | -115.31591 | 13675 ft | 340 kts | 200° |
| 2026-05-04 03:02 | 35.74661 | -115.32592 | 14263 ft | 344 kts | 200° |
| 2026-05-04 03:02 | 35.72397 | -115.33612 | 14924 ft | 347 kts | 200° |
| 2026-05-04 03:02 | 35.70113 | -115.34639 | 15526 ft | 350 kts | 200° |
| 2026-05-04 03:03 | 35.67812 | -115.35671 | 16150 ft | 353 kts | 201° |
| 2026-05-04 03:03 | 35.65489 | -115.36715 | 16761 ft | 356 kts | 201° |
| 2026-05-04 03:03 | 35.63175 | -115.37753 | 17376 ft | 359 kts | 201° |
| 2026-05-04 03:03 | 35.60731 | -115.38488 | 18001 ft | 365 kts | 190° |
| 2026-05-04 03:04 | 35.58167 | -115.38605 | 18558 ft | 372 kts | 181° |
| 2026-05-04 03:04 | 35.55569 | -115.38417 | 19131 ft | 374 kts | 181° |
| 2026-05-04 03:04 | 35.52958 | -115.38226 | 19716 ft | 376 kts | 182° |
| 2026-05-04 03:04 | 35.50364 | -115.38036 | 20289 ft | 378 kts | 182° |
| 2026-05-04 03:05 | 35.47728 | -115.37844 | 20855 ft | 380 kts | 184° |
| 2026-05-04 03:05 | 35.45108 | -115.37974 | 21382 ft | 373 kts | 195° |
| 2026-05-04 03:05 | 35.42611 | -115.38724 | 21918 ft | 367 kts | 206° |
| 2026-05-04 03:05 | 35.40300 | -115.40030 | 22490 ft | 363 kts | 213° |
| 2026-05-04 03:06 | 35.38091 | -115.41457 | 23019 ft | 363 kts | 213° |
| 2026-05-04 03:06 | 35.35842 | -115.42904 | 23518 ft | 365 kts | 213° |
| 2026-05-04 03:06 | 35.33585 | -115.44353 | 23890 ft | 369 kts | 213° |
| 2026-05-04 03:06 | 35.31280 | -115.45832 | 24074 ft | 377 kts | 213° |
| 2026-05-04 03:07 | 35.28940 | -115.47324 | 24374 ft | 381 kts | 213° |
| 2026-05-04 03:07 | 35.26599 | -115.48808 | 24709 ft | 384 kts | 213° |
| 2026-05-04 03:07 | 35.24211 | -115.50322 | 25057 ft | 387 kts | 213° |
| 2026-05-04 03:07 | 35.21808 | -115.51846 | 25411 ft | 389 kts | 213° |
| 2026-05-04 03:08 | 35.19417 | -115.53367 | 25771 ft | 392 kts | 213° |
| 2026-05-04 03:08 | 35.16990 | -115.54914 | 26142 ft | 395 kts | 214° |
| 2026-05-04 03:08 | 35.14545 | -115.56477 | 26515 ft | 397 kts | 214° |
| 2026-05-04 03:08 | 35.12241 | -115.58318 | 26847 ft | 393 kts | 224° |
| 2026-05-04 03:09 | 35.10260 | -115.60603 | 27195 ft | 391 kts | 230° |
| 2026-05-04 03:09 | 35.08397 | -115.62997 | 27549 ft | 393 kts | 230° |
| 2026-05-04 03:09 | 35.06496 | -115.65434 | 27800 ft | 395 kts | 230° |
| 2026-05-04 03:09 | 35.04600 | -115.67862 | 27832 ft | 394 kts | 230° |
| 2026-05-04 03:10 | 35.02701 | -115.70288 | 27835 ft | 394 kts | 230° |
| 2026-05-04 03:10 | 35.00825 | -115.72678 | 27834 ft | 394 kts | 230° |
| 2026-05-04 03:10 | 34.98922 | -115.75099 | 27835 ft | 394 kts | 230° |
| 2026-05-04 03:10 | 34.97024 | -115.77513 | 27824 ft | 394 kts | 230° |
| 2026-05-04 03:11 | 34.95127 | -115.79927 | 27821 ft | 394 kts | 230° |
| 2026-05-04 03:11 | 34.93253 | -115.82313 | 27815 ft | 393 kts | 230° |
| 2026-05-04 03:11 | 34.91344 | -115.84740 | 27813 ft | 393 kts | 230° |
| 2026-05-04 03:11 | 34.89445 | -115.87151 | 27814 ft | 393 kts | 230° |
| 2026-05-04 03:12 | 34.87570 | -115.89532 | 27801 ft | 393 kts | 230° |
| 2026-05-04 03:12 | 34.85679 | -115.91936 | 27800 ft | 393 kts | 230° |
| 2026-05-04 03:12 | 34.83782 | -115.94347 | 27798 ft | 393 kts | 230° |
| 2026-05-04 03:12 | 34.82519 | -115.95946 | 27806 ft | 393 kts | 230° |
| 2026-05-04 03:13 | 34.80620 | -115.98345 | 27805 ft | 393 kts | 230° |
| 2026-05-04 03:13 | 34.78101 | -116.01526 | 27781 ft | 392 kts | 230° |
| 2026-05-04 03:13 | 34.76842 | -116.03117 | 27789 ft | 392 kts | 230° |
| 2026-05-04 03:13 | 34.74952 | -116.05518 | 27799 ft | 392 kts | 230° |
| 2026-05-04 03:14 | 34.73072 | -116.07917 | 27801 ft | 391 kts | 230° |
| 2026-05-04 03:14 | 34.71190 | -116.10320 | 27798 ft | 394 kts | 230° |
| 2026-05-04 03:14 | 34.69272 | -116.12773 | 27793 ft | 405 kts | 230° |
| 2026-05-04 03:14 | 34.67308 | -116.15282 | 27787 ft | 415 kts | 230° |
| 2026-05-04 03:15 | 34.65326 | -116.17807 | 27789 ft | 419 kts | 230° |
| 2026-05-04 03:15 | 34.63302 | -116.20381 | 27788 ft | 421 kts | 230° |
| 2026-05-04 03:15 | 34.61273 | -116.22959 | 27789 ft | 421 kts | 230° |
| 2026-05-04 03:15 | 34.59244 | -116.25532 | 27788 ft | 421 kts | 230° |
| 2026-05-04 03:16 | 34.57214 | -116.28099 | 27785 ft | 420 kts | 230° |
| 2026-05-04 03:16 | 34.55185 | -116.30660 | 27785 ft | 419 kts | 230° |
| 2026-05-04 03:16 | 34.53158 | -116.33219 | 27786 ft | 420 kts | 230° |
| 2026-05-04 03:16 | 34.51153 | -116.35752 | 27783 ft | 419 kts | 230° |
| 2026-05-04 03:17 | 34.49127 | -116.38311 | 27772 ft | 419 kts | 230° |
| 2026-05-04 03:17 | 34.47103 | -116.40865 | 27751 ft | 419 kts | 230° |
| 2026-05-04 03:17 | 34.45083 | -116.43411 | 27761 ft | 419 kts | 230° |
| 2026-05-04 03:17 | 34.43088 | -116.45935 | 27764 ft | 418 kts | 231° |
| 2026-05-04 03:18 | 34.41331 | -116.48711 | 27772 ft | 413 kts | 241° |
| 2026-05-04 03:18 | 34.40003 | -116.51786 | 27777 ft | 411 kts | 245° |
| 2026-05-04 03:18 | 34.38732 | -116.54886 | 27778 ft | 410 kts | 245° |
| 2026-05-04 03:18 | 34.37458 | -116.57984 | 27683 ft | 408 kts | 245° |
| 2026-05-04 03:19 | 34.36196 | -116.61050 | 27298 ft | 412 kts | 244° |
| 2026-05-04 03:19 | 34.34908 | -116.64167 | 27052 ft | 415 kts | 244° |
| 2026-05-04 03:19 | 34.33605 | -116.67318 | 26797 ft | 417 kts | 244° |
| 2026-05-04 03:19 | 34.32312 | -116.70465 | 26548 ft | 417 kts | 244° |
| 2026-05-04 03:20 | 34.31038 | -116.73615 | 26300 ft | 416 kts | 245° |
| 2026-05-04 03:20 | 34.29794 | -116.76725 | 26094 ft | 415 kts | 245° |
| 2026-05-04 03:20 | 34.28539 | -116.79874 | 25848 ft | 416 kts | 245° |
| 2026-05-04 03:20 | 34.27279 | -116.83031 | 25608 ft | 415 kts | 245° |
| 2026-05-04 03:21 | 34.26040 | -116.86127 | 25365 ft | 400 kts | 245° |
| 2026-05-04 03:21 | 34.24844 | -116.89095 | 25165 ft | 384 kts | 245° |
| 2026-05-04 03:21 | 34.23692 | -116.91937 | 24930 ft | 369 kts | 245° |
| 2026-05-04 03:21 | 34.22592 | -116.94646 | 24699 ft | 351 kts | 244° |
| 2026-05-04 03:22 | 34.21540 | -116.97234 | 24283 ft | 345 kts | 245° |
| 2026-05-04 03:22 | 34.20664 | -116.99968 | 23619 ft | 349 kts | 251° |
| 2026-05-04 03:22 | 34.19932 | -117.02733 | 23316 ft | 342 kts | 251° |
| 2026-05-04 03:22 | 34.19196 | -117.05460 | 22814 ft | 339 kts | 251° |
| 2026-05-04 03:23 | 34.18473 | -117.08115 | 22361 ft | 335 kts | 251° |
| 2026-05-04 03:23 | 34.17745 | -117.10778 | 21862 ft | 332 kts | 251° |
| 2026-05-04 03:23 | 34.17021 | -117.13434 | 21415 ft | 330 kts | 251° |
| 2026-05-04 03:23 | 34.16305 | -117.16065 | 20895 ft | 328 kts | 251° |
| 2026-05-04 03:24 | 34.15599 | -117.18645 | 20430 ft | 326 kts | 251° |
| 2026-05-04 03:24 | 34.14886 | -117.21237 | 20102 ft | 322 kts | 251° |
| 2026-05-04 03:24 | 34.14183 | -117.23789 | 19640 ft | 319 kts | 251° |
| 2026-05-04 03:24 | 34.13482 | -117.26329 | 19153 ft | 317 kts | 251° |
| 2026-05-04 03:25 | 34.12787 | -117.28846 | 18664 ft | 315 kts | 251° |
| 2026-05-04 03:25 | 34.12096 | -117.31348 | 18170 ft | 313 kts | 251° |
| 2026-05-04 03:25 | 34.11418 | -117.33805 | 17620 ft | 312 kts | 250° |
| 2026-05-04 03:25 | 34.10735 | -117.36286 | 17038 ft | 311 kts | 250° |
| 2026-05-04 03:26 | 34.10066 | -117.38775 | 16446 ft | 312 kts | 251° |
| 2026-05-04 03:26 | 34.09429 | -117.41279 | 15864 ft | 312 kts | 251° |
| 2026-05-04 03:26 | 34.08804 | -117.43799 | 15305 ft | 313 kts | 251° |
| 2026-05-04 03:26 | 34.08190 | -117.46296 | 14715 ft | 315 kts | 251° |
| 2026-05-04 03:27 | 34.07563 | -117.48841 | 14212 ft | 316 kts | 251° |
| 2026-05-04 03:27 | 34.06789 | -117.51320 | 13707 ft | 315 kts | 244° |
| 2026-05-04 03:27 | 34.05912 | -117.53747 | 13188 ft | 315 kts | 244° |
| 2026-05-04 03:27 | 34.05052 | -117.56130 | 12713 ft | 313 kts | 245° |
| 2026-05-04 03:28 | 34.04185 | -117.58539 | 12232 ft | 312 kts | 245° |
| 2026-05-04 03:28 | 34.03321 | -117.60938 | 11758 ft | 310 kts | 245° |
| 2026-05-04 03:28 | 34.02462 | -117.63318 | 11285 ft | 309 kts | 245° |
| 2026-05-04 03:28 | 34.01606 | -117.65699 | 10821 ft | 308 kts | 245° |
| 2026-05-04 03:29 | 34.00820 | -117.68071 | 10349 ft | 308 kts | 252° |
| 2026-05-04 03:29 | 34.00467 | -117.70599 | 10146 ft | 301 kts | 262° |
| 2026-05-04 03:29 | 34.00243 | -117.73055 | 10023 ft | 289 kts | 261° |
| 2026-05-04 03:29 | 34.00017 | -117.75427 | 9894 ft | 279 kts | 261° |
| 2026-05-04 03:30 | 33.99788 | -117.77733 | 9571 ft | 277 kts | 261° |
| 2026-05-04 03:30 | 33.99554 | -117.80034 | 9249 ft | 274 kts | 261° |
| 2026-05-04 03:30 | 33.99324 | -117.82300 | 8835 ft | 276 kts | 261° |
| 2026-05-04 03:30 | 33.99095 | -117.84590 | 8474 ft | 275 kts | 261° |
| 2026-05-04 03:31 | 33.98869 | -117.86877 | 8128 ft | 273 kts | 261° |
| 2026-05-04 03:31 | 33.98648 | -117.89147 | 7773 ft | 272 kts | 262° |
| 2026-05-04 03:31 | 33.98427 | -117.91418 | 7433 ft | 272 kts | 262° |
| 2026-05-04 03:31 | 33.98206 | -117.93657 | 7096 ft | 271 kts | 261° |
| 2026-05-04 03:32 | 33.97976 | -117.95913 | 6756 ft | 270 kts | 262° |
| 2026-05-04 03:32 | 33.97752 | -117.98171 | 6426 ft | 270 kts | 262° |
| 2026-05-04 03:32 | 33.97535 | -118.00378 | 6253 ft | 263 kts | 262° |
| 2026-05-04 03:32 | 33.97321 | -118.02545 | 5935 ft | 263 kts | 262° |
| 2026-05-04 03:33 | 33.97103 | -118.04743 | 5578 ft | 264 kts | 262° |
| 2026-05-04 03:33 | 33.96885 | -118.06942 | 5230 ft | 264 kts | 263° |
| 2026-05-04 03:33 | 33.96666 | -118.09157 | 4872 ft | 265 kts | 262° |
| 2026-05-04 03:33 | 33.96449 | -118.11336 | 4514 ft | 265 kts | 262° |
| 2026-05-04 03:34 | 33.96229 | -118.13543 | 4157 ft | 265 kts | 262° |
| 2026-05-04 03:34 | 33.96007 | -118.15764 | 3800 ft | 265 kts | 262° |
| 2026-05-04 03:34 | 33.95786 | -118.17974 | 3455 ft | 265 kts | 262° |
| 2026-05-04 03:34 | 33.95570 | -118.20130 | 3104 ft | 257 kts | 262° |
| 2026-05-04 03:35 | 33.95360 | -118.22219 | 2773 ft | 244 kts | 262° |
| 2026-05-04 03:35 | 33.95161 | -118.24194 | 2449 ft | 230 kts | 263° |
| 2026-05-04 03:35 | 33.94978 | -118.26009 | 2150 ft | 207 kts | 263° |
| 2026-05-04 03:35 | 33.94811 | -118.27663 | 1890 ft | 192 kts | 262° |
| 2026-05-04 03:36 | 33.94659 | -118.29168 | 1662 ft | 174 kts | 263° |
| 2026-05-04 03:36 | 33.94525 | -118.30500 | 1423 ft | 147 kts | 262° |
| 2026-05-04 03:36 | 33.94407 | -118.31664 | 1230 ft | 133 kts | 262° |
| 2026-05-04 03:36 | 33.94299 | -118.32733 | 1059 ft | 129 kts | 262° |
| 2026-05-04 03:37 | 33.94190 | -118.33798 | 881 ft | 129 kts | 262° |
| 2026-05-04 03:37 | 33.94082 | -118.34868 | 709 ft | 128 kts | 262° |
| 2026-05-04 03:37 | 33.93973 | -118.35935 | 546 ft | 128 kts | 263° |
| 2026-05-04 03:37 | 33.93868 | -118.36987 | 414 ft | 127 kts | 262° |
| 2026-05-04 03:38 | 33.93753 | -118.38039 | 201 ft | 125 kts | 263° |
| 2026-05-04 03:38 | 33.93654 | -118.39039 | 96 ft | 108 kts | 264° |
| 2026-05-04 03:38 | 33.93589 | -118.39739 | 94 ft | 61 kts | 263° |
| 2026-05-04 03:38 | 33.93545 | -118.40183 | 95 ft | 49 kts | 263° |
| 2026-05-04 03:39 | 33.93552 | -118.40495 | 96 ft | 33 kts | 285° |
| 2026-05-04 03:39 | 33.93594 | -118.40679 | 94 ft | 22 kts | 272° |
| 2026-05-04 03:39 | 33.93601 | -118.40823 | 94 ft | 12 kts | 290° |
| 2026-05-04 03:39 | 33.93604 | -118.40831 | 94 ft | 0 kts | 291° |
| 2026-05-04 03:41 | 33.93610 | -118.40846 | 96 ft | 11 kts | 298° |
| 2026-05-04 03:41 | 33.93706 | -118.40903 | 95 ft | 18 kts | 354° |
| 2026-05-04 03:41 | 33.93770 | -118.40912 | 94 ft | 0 kts | 353° |
| 2026-05-04 03:42 | 33.93816 | -118.40918 | 94 ft | 15 kts | 353° |
| 2026-05-04 03:42 | 33.93873 | -118.40872 | 93 ft | 13 kts | 80° |
| 2026-05-04 03:42 | 33.93929 | -118.40812 | 95 ft | 9 kts | 3° |
| 2026-05-04 03:42 | 33.93968 | -118.40774 | 95 ft | 7 kts | 68° |
| 2026-05-04 03:43 | 33.93976 | -118.40746 | 93 ft | 3 kts | 71° |
| 2026-05-04 03:43 | 33.93979 | -118.40732 | 93 ft | 0 kts | 71° |